createdAt,value
2022-10-22T00:03:25.963Z,20.13
2022-10-22T00:08:28.708Z,12.73
2022-10-22T00:13:30.897Z,13.25
2022-10-22T00:18:33.249Z,14.48
2022-10-22T00:23:36.021Z,17.02
2022-10-22T00:28:39.081Z,12.02
2022-10-22T00:33:42.164Z,14.27
2022-10-22T00:38:44.410Z,14.18
2022-10-22T00:43:59.558Z,13.25
2022-10-22T00:49:04.686Z,13.85
2022-10-22T00:54:09.207Z,17.90
2022-10-22T00:59:14.375Z,19.10
2022-10-22T01:04:17.488Z,23.80
2022-10-22T01:09:37.134Z,14.55
2022-10-22T01:14:57.507Z,13.77
2022-10-22T01:25:38.868Z,19.98
2022-10-22T01:30:42.842Z,13.52
2022-10-22T01:35:46.072Z,13.90
2022-10-22T01:40:49.989Z,17.42
2022-10-22T01:45:57.098Z,21.60
2022-10-22T01:51:29.970Z,18.20
2022-10-22T01:57:01.286Z,16.85
2022-10-22T02:02:12.410Z,22.40
2022-10-22T02:07:18.887Z,14.30
2022-10-22T02:12:23.312Z,19.88
2022-10-22T02:17:29.730Z,17.30
2022-10-22T02:22:32.644Z,15.68
2022-10-22T02:27:45.913Z,14.70
2022-10-22T02:32:54.747Z,22.30
2022-10-22T02:37:58.985Z,17.50
2022-10-22T02:43:01.409Z,16.27
2022-10-22T02:48:04.459Z,14.32
2022-10-22T02:53:06.720Z,17.42
2022-10-22T02:58:08.946Z,18.77
2022-10-22T03:03:11.333Z,13.32
2022-10-22T03:08:13.605Z,17.83
2022-10-22T03:13:15.957Z,14.48
2022-10-22T03:18:18.674Z,14.93
2022-10-22T03:23:21.048Z,17.67
2022-10-22T03:28:23.462Z,16.98
2022-10-22T03:33:25.724Z,15.70
2022-10-22T03:38:27.975Z,14.07
2022-10-22T03:43:30.255Z,17.83
2022-10-22T03:48:32.503Z,15.38
2022-10-22T03:53:34.930Z,29.52
2022-10-22T03:58:38.778Z,20.65
2022-10-22T04:03:41.567Z,21.55
2022-10-22T04:08:45.306Z,15.23
2022-10-22T04:13:47.562Z,18.50
2022-10-22T04:18:50.817Z,15.25
2022-10-22T04:23:54.103Z,24.55
2022-10-22T04:28:56.406Z,16.25
2022-10-22T04:34:00.878Z,18.52
2022-10-22T04:39:04.263Z,24.95
2022-10-22T04:44:11.101Z,18.05
2022-10-22T04:49:19.152Z,20.13
2022-10-22T04:54:21.498Z,19.38
2022-10-22T04:59:23.870Z,24.45
2022-10-22T05:04:26.190Z,25.95
2022-10-22T05:09:28.603Z,25.05
2022-10-22T05:14:30.846Z,18.77
2022-10-22T05:19:33.839Z,24.67
2022-10-22T05:24:37.617Z,19.35
2022-10-22T05:29:39.943Z,17.38
2022-10-22T05:34:42.143Z,28.88
2022-10-22T05:39:44.342Z,19.05
2022-10-22T05:44:46.526Z,26.80
2022-10-22T05:49:49.585Z,21.65
2022-10-22T05:54:52.027Z,24.00
2022-10-22T05:59:54.205Z,23.45
2022-10-22T06:04:56.449Z,22.35
2022-10-22T06:10:00.002Z,23.65
2022-10-22T06:15:02.251Z,14.93
2022-10-22T06:25:13.167Z,20.17
2022-10-22T06:30:15.451Z,18.40
2022-10-22T06:35:17.853Z,23.77
2022-10-22T06:40:20.177Z,22.05
2022-10-22T06:45:22.595Z,23.70
2022-10-22T06:50:25.028Z,19.33
2022-10-22T06:55:27.329Z,24.42
2022-10-22T07:00:29.783Z,31.27
2022-10-22T07:05:34.686Z,26.42
2022-10-22T07:10:36.909Z,21.98
2022-10-22T07:15:39.130Z,22.92
2022-10-22T07:20:41.411Z,20.00
2022-10-22T07:25:43.860Z,17.00
2022-10-22T07:30:46.578Z,22.90
2022-10-22T07:35:49.199Z,24.23
2022-10-22T07:40:51.498Z,20.35
2022-10-22T07:45:56.201Z,24.85
2022-10-22T07:50:58.793Z,22.10
2022-10-22T07:56:01.269Z,22.17
2022-10-22T08:01:06.339Z,15.93
2022-10-22T08:06:09.953Z,16.33
2022-10-22T08:11:12.963Z,19.73
2022-10-22T08:16:15.919Z,17.45
2022-10-22T08:21:18.325Z,15.90
2022-10-22T08:26:21.620Z,17.95
2022-10-22T08:31:25.403Z,23.33
2022-10-22T08:36:27.821Z,20.60
2022-10-22T08:41:30.418Z,14.95
2022-10-22T08:47:01.542Z,11.32
2022-10-22T08:52:04.310Z,15.38
2022-10-22T08:57:09.521Z,16.95
2022-10-22T09:02:39.736Z,17.55
2022-10-22T09:07:50.399Z,14.73
2022-10-22T09:12:53.092Z,12.13
2022-10-22T09:18:05.232Z,10.05
2022-10-22T09:23:22.438Z,13.20
2022-10-22T09:28:25.070Z,14.15
2022-10-22T09:33:31.257Z,16.58
2022-10-22T09:38:39.517Z,18.05
2022-10-22T09:43:41.910Z,14.05
2022-10-22T09:48:49.485Z,15.75
2022-10-22T09:54:00.526Z,12.30
2022-10-22T09:59:03.784Z,10.63
2022-10-22T10:04:10.005Z,11.75
2022-10-22T10:09:18.614Z,14.68
2022-10-22T10:14:39.052Z,15.60
2022-10-22T10:19:47.964Z,16.45
2022-10-22T10:25:11.912Z,14.75
2022-10-22T10:30:18.494Z,16.88
2022-10-22T10:35:26.657Z,29.50
2022-10-22T10:40:52.131Z,18.75
2022-10-22T10:46:13.022Z,14.20
2022-10-22T10:51:47.561Z,12.88
2022-10-22T10:56:56.373Z,15.77
2022-10-22T11:02:20.327Z,11.20
2022-10-22T11:07:34.762Z,14.32
2022-10-22T11:12:43.339Z,10.52
2022-10-22T11:17:49.399Z,13.25
2022-10-22T11:23:21.044Z,12.55
2022-10-22T11:28:34.626Z,12.45
2022-10-22T11:33:57.309Z,12.00
2022-10-22T11:39:07.511Z,12.60
2022-10-22T11:44:21.332Z,12.68
2022-10-22T11:49:41.839Z,16.95
2022-10-22T11:54:45.588Z,16.05
2022-10-22T11:59:50.141Z,15.15
2022-10-22T12:04:52.465Z,13.25
2022-10-22T12:09:54.893Z,12.52
2022-10-22T12:14:58.611Z,14.88
2022-10-22T12:20:14.248Z,19.02
2022-10-22T12:25:26.258Z,12.57
2022-10-22T12:30:32.215Z,8.38
2022-10-22T12:35:43.857Z,12.57
2022-10-22T12:40:48.707Z,10.57
2022-10-22T12:45:53.330Z,14.10
2022-10-22T12:50:59.627Z,7.35
2022-10-22T12:56:05.578Z,13.45
2022-10-22T13:01:11.149Z,11.57
2022-10-22T13:06:19.474Z,15.45
2022-10-22T13:11:21.989Z,11.90
2022-10-22T13:16:26.671Z,11.85
2022-10-22T13:21:39.165Z,10.88
2022-10-22T13:26:41.430Z,6.85
2022-10-22T13:31:53.177Z,10.55
2022-10-22T13:36:55.790Z,8.88
2022-10-22T13:41:58.641Z,11.95
2022-10-22T13:47:01.213Z,11.05
2022-10-22T13:52:06.085Z,6.05
2022-10-22T13:57:11.302Z,9.98
2022-10-22T14:02:14.797Z,12.45
2022-10-22T14:07:17.869Z,7.20
2022-10-22T14:12:23.433Z,6.53
2022-10-22T14:17:32.379Z,19.55
2022-10-22T14:22:34.977Z,9.43
2022-10-22T14:27:39.096Z,9.07
2022-10-22T14:32:42.037Z,9.75
2022-10-22T14:37:45.198Z,15.25
2022-10-22T14:42:49.849Z,5.70
2022-10-22T14:47:56.157Z,14.40
2022-10-22T14:53:00.646Z,10.63
2022-10-22T14:58:03.331Z,9.05
2022-10-22T15:03:05.833Z,13.93
2022-10-22T15:08:08.508Z,10.88
2022-10-22T15:13:11.021Z,15.88
2022-10-22T15:18:13.447Z,12.10
2022-10-22T15:23:15.851Z,14.40
2022-10-22T15:28:18.350Z,10.07
2022-10-22T15:33:21.088Z,12.98
2022-10-22T15:48:34.849Z,11.40
2022-10-22T15:53:37.409Z,14.50
2022-10-22T15:58:40.750Z,22.67
2022-10-22T16:03:43.668Z,15.20
2022-10-22T16:08:49.487Z,17.33
2022-10-22T16:13:59.931Z,21.95
2022-10-22T16:19:03.443Z,26.55
2022-10-22T16:24:07.276Z,16.60
2022-10-22T16:29:12.042Z,16.67
2022-10-22T16:34:14.627Z,23.90
2022-10-22T16:39:17.518Z,18.95
2022-10-22T16:44:19.982Z,20.80
2022-10-22T16:49:22.810Z,17.40
2022-10-22T16:54:25.200Z,23.17
2022-10-22T16:59:28.466Z,22.73
2022-10-22T17:04:31.945Z,31.63
2022-10-22T17:09:34.750Z,47.58
2022-10-22T17:14:37.991Z,34.83
2022-10-22T17:19:41.033Z,35.83
2022-10-22T17:24:44.723Z,32.03
2022-10-22T17:29:47.824Z,38.75
2022-10-22T17:34:50.922Z,33.35
2022-10-22T17:39:53.687Z,26.92
2022-10-22T17:44:56.886Z,30.25
2022-10-22T17:50:00.993Z,24.95
2022-10-22T17:55:05.098Z,21.33
2022-10-22T18:00:08.984Z,17.90
2022-10-22T18:05:13.283Z,21.38
2022-10-22T18:10:16.342Z,17.92
2022-10-22T18:15:36.844Z,19.42
2022-10-22T18:20:40.588Z,32.45
2022-10-22T18:25:43.807Z,22.88
2022-10-22T18:30:48.569Z,21.13
2022-10-22T18:35:55.920Z,20.35
2022-10-22T18:40:59.049Z,19.90
2022-10-22T18:46:03.183Z,25.50
2022-10-22T18:51:09.522Z,30.02
2022-10-22T18:56:13.200Z,33.83
2022-10-22T19:01:20.409Z,30.38
2022-10-22T19:06:34.415Z,33.88
2022-10-22T19:11:39.633Z,37.25
2022-10-22T19:16:42.793Z,35.83
2022-10-22T19:21:45.860Z,44.92
2022-10-22T19:26:51.290Z,42.33
2022-10-22T19:31:55.574Z,29.67
2022-10-22T19:36:59.867Z,33.78
2022-10-22T19:42:04.810Z,39.70
2022-10-22T19:47:07.385Z,32.10
2022-10-22T19:52:10.395Z,35.97
2022-10-22T19:57:17.277Z,56.17
2022-10-22T20:02:19.890Z,31.30
2022-10-22T20:07:23.038Z,33.47
2022-10-22T20:12:25.566Z,38.83
2022-10-22T20:17:28.684Z,45.40
2022-10-22T20:22:31.363Z,42.78
2022-10-22T20:27:34.006Z,42.42
2022-10-22T20:32:41.093Z,42.45
2022-10-22T20:37:43.934Z,38.60
2022-10-22T20:42:48.228Z,52.88
2022-10-22T20:47:58.690Z,40.97
2022-10-22T20:53:05.645Z,54.33
2022-10-22T20:58:08.548Z,39.00
2022-10-22T21:03:11.807Z,48.30
2022-10-22T21:08:17.897Z,45.10
2022-10-22T21:13:20.348Z,43.80
2022-10-22T21:18:22.730Z,40.42
2022-10-22T21:23:25.166Z,39.13
2022-10-22T21:33:31.662Z,35.80
2022-10-22T21:38:35.268Z,31.27
2022-10-22T21:43:39.203Z,28.15
2022-10-22T21:48:41.516Z,28.58
2022-10-22T21:53:44.776Z,27.15
2022-10-22T21:58:48.543Z,35.17
2022-10-22T22:03:53.316Z,32.97
2022-10-22T22:08:56.176Z,27.08
2022-10-22T22:13:59.397Z,29.40
2022-10-22T22:24:13.712Z,34.80
2022-10-22T22:29:16.001Z,36.92
2022-10-22T22:34:18.711Z,29.52
2022-10-22T22:39:26.039Z,35.45
2022-10-22T22:44:28.445Z,29.45
2022-10-22T22:49:30.789Z,28.25
2022-10-22T22:54:33.174Z,26.27
2022-10-22T22:59:35.670Z,31.35
2022-10-22T23:04:38.125Z,27.70
2022-10-22T23:09:40.593Z,34.00
2022-10-22T23:14:42.915Z,24.40
2022-10-22T23:19:45.414Z,34.08
2022-10-22T23:24:47.788Z,25.52
2022-10-22T23:29:50.331Z,29.05
2022-10-22T23:34:52.742Z,26.00
2022-10-22T23:39:55.282Z,29.95
2022-10-22T23:44:57.636Z,26.75
2022-10-22T23:49:59.925Z,28.42
2022-10-22T23:55:02.351Z,37.40
